Time;durP1;ratioP1;P1;durP2;ratioP2;P2;SDS_P1;SDS_P2;PMS_P1;PMS_P2;Temp;Humidity;BMP_temperature;BMP_pressure;BME280_temperature;BME280_humidity;BME280_pressure;Samples;Min_cycle;Max_cycle;Signal;HPM_P1;HPM_P2
2022/07/15 00:02:24;;;;;;;6.88;3.13;;;;;;;23.70;43.70;99614.94;5091998;28;20401;-37
2022/07/15 00:04:50;;;;;;;4.00;2.83;;;;;;;23.66;43.53;99613.91;5091735;28;20376;-38
2022/07/15 00:07:15;;;;;;;5.60;2.63;;;;;;;23.65;43.24;99606.09;5091265;28;20437;-37
2022/07/15 00:12:25;;;;;;;5.88;2.55;;;;;;;23.53;43.80;99606.50;5091807;28;20031;-37
2022/07/15 00:14:51;;;;;;;6.10;2.90;;;;;;;23.47;43.81;99599.53;5091212;28;20028;-37
2022/07/15 00:17:16;;;;;;;6.60;2.92;;;;;;;23.61;43.77;99614.00;5091273;28;20058;-38
2022/07/15 00:19:42;;;;;;;5.35;2.78;;;;;;;23.61;43.82;99609.38;5091251;28;20027;-38
2022/07/15 00:22:07;;;;;;;7.38;3.00;;;;;;;23.53;44.03;99606.50;5091508;28;20126;-37
2022/07/15 00:24:33;;;;;;;5.43;2.70;;;;;;;23.44;44.03;99600.94;5090782;28;20673;-37
2022/07/15 00:26:59;;;;;;;4.03;2.40;;;;;;;23.55;43.92;99599.69;5091028;28;20028;-38
2022/07/15 00:29:25;;;;;;;4.25;2.42;;;;;;;23.41;44.08;99605.03;5072638;28;20028;-38
2022/07/15 00:31:51;;;;;;;3.13;2.67;;;;;;;23.32;44.25;99604.09;5070567;28;20025;-38
2022/07/15 00:34:16;;;;;;;5.30;2.40;;;;;;;23.50;43.78;99599.75;5070472;28;20036;-37
2022/07/15 00:36:42;;;;;;;5.20;2.53;;;;;;;23.60;43.69;99606.94;5070483;28;20035;-38
2022/07/15 00:39:09;;;;;;;4.20;2.58;;;;;;;23.35;44.13;99597.25;5070549;28;20097;-38
2022/07/15 00:41:42;;;;;;;5.40;2.55;;;;;;;23.34;44.43;99606.47;5070761;28;20641;-38
2022/07/15 00:44:08;;;;;;;6.22;2.85;;;;;;;23.24;44.61;99604.72;5079680;28;20031;-37
2022/07/15 00:46:35;;;;;;;4.93;2.70;;;;;;;23.13;44.72;99601.34;5090495;28;20028;-38
2022/07/15 00:49:02;;;;;;;3.72;2.60;;;;;;;23.19;45.16;99602.09;5090052;28;20070;-37
2022/07/15 00:51:36;;;;;;;4.55;2.90;;;;;;;23.08;45.10;99597.88;5088084;28;20606;-43
2022/07/15 00:54:03;;;;;;;6.75;2.95;;;;;;;23.23;44.69;99600.41;5089976;28;20528;-43
2022/07/15 00:56:30;;;;;;;4.45;2.60;;;;;;;23.20;44.83;99599.06;5090043;28;20028;-43
2022/07/15 00:58:58;;;;;;;4.47;2.70;;;;;;;23.18;44.66;99576.03;5090321;28;20028;-42
2022/07/15 01:01:24;;;;;;;6.60;2.72;;;;;;;23.11;45.18;99589.94;5090577;28;20023;-45
2022/07/15 01:03:50;;;;;;;3.35;2.70;;;;;;;23.02;45.32;99595.19;5089315;28;20779;-42
2022/07/15 01:06:16;;;;;;;7.50;2.70;;;;;;;23.13;45.20;99595.91;5089567;28;20024;-42
2022/07/15 01:08:41;;;;;;;3.78;2.60;;;;;;;23.06;45.45;99595.44;5088602;28;20020;-42
2022/07/15 01:11:07;;;;;;;3.22;2.40;;;;;;;22.93;45.67;99585.25;5087498;28;20023;-43
2022/07/15 01:13:33;;;;;;;7.18;2.55;;;;;;;22.83;46.31;99580.75;5089252;28;20032;-40
2022/07/15 01:15:58;;;;;;;3.55;2.55;;;;;;;22.84;46.04;99588.59;5089385;28;20678;-41
2022/07/15 01:18:24;;;;;;;5.03;2.60;;;;;;;22.90;45.92;99580.41;5088855;28;20739;-42
2022/07/15 01:20:49;;;;;;;4.38;2.30;;;;;;;22.90;45.95;99591.25;5089297;28;20554;-43
2022/07/15 01:23:15;;;;;;;5.18;2.50;;;;;;;22.99;45.80;99586.81;5088600;28;20034;-42
2022/07/15 01:25:41;;;;;;;5.25;2.70;;;;;;;22.95;45.99;99583.88;5088918;28;20020;-41
2022/07/15 01:28:08;;;;;;;5.80;2.42;;;;;;;22.86;46.35;99579.38;5089830;28;20031;-42
2022/07/15 01:30:35;;;;;;;3.90;2.50;;;;;;;22.72;47.02;99581.97;5087738;28;20467;-42
2022/07/15 01:33:01;;;;;;;8.00;2.70;;;;;;;22.55;47.17;99572.38;5088557;28;20499;-43
2022/07/15 01:35:28;;;;;;;3.92;2.47;;;;;;;22.48;47.84;99576.53;5088936;28;20035;-42
2022/07/15 01:37:53;;;;;;;4.75;2.60;;;;;;;22.45;47.87;99570.56;5088794;28;20051;-43
2022/07/15 01:40:19;;;;;;;3.97;2.65;;;;;;;22.36;47.82;99576.91;5089472;28;20035;-42
2022/07/15 01:42:45;;;;;;;5.95;2.65;;;;;;;22.26;48.11;99572.41;5089412;28;20042;-42
2022/07/15 01:45:11;;;;;;;7.25;2.90;;;;;;;22.31;47.87;99569.63;5089210;28;20462;-42
2022/07/15 01:47:48;;;;;;;3.95;2.80;;;;;;;22.29;47.89;99562.88;5089272;28;20597;-42
2022/07/15 01:50:14;;;;;;;4.65;3.17;;;;;;;22.37;48.09;99570.38;5088824;28;20119;-43
2022/07/15 01:52:40;;;;;;;6.22;2.90;;;;;;;22.38;47.97;99577.44;5089012;28;20020;-42
2022/07/15 01:55:08;;;;;;;5.03;2.80;;;;;;;22.30;48.58;99583.47;5088752;28;20070;-43
2022/07/15 01:57:33;;;;;;;6.72;2.67;;;;;;;22.20;48.55;99585.16;5089076;28;20015;-42
2022/07/15 01:59:59;;;;;;;6.35;2.85;;;;;;;22.05;49.16;99582.56;5089029;28;20413;-44
2022/07/15 02:02:24;;;;;;;6.03;2.70;;;;;;;22.11;49.07;99586.84;5088575;28;20085;-42
2022/07/15 02:04:50;;;;;;;7.40;3.28;;;;;;;22.05;49.58;99602.34;5088405;28;20020;-42
2022/07/15 02:07:15;;;;;;;5.43;3.00;;;;;;;22.17;49.44;99593.03;5088822;28;20463;-42
2022/07/15 02:09:41;;;;;;;4.75;3.17;;;;;;;22.48;48.55;99596.28;5088286;28;20464;-42
2022/07/15 02:12:07;;;;;;;4.15;3.00;;;;;;;22.41;48.93;99591.22;5073706;28;20178;-43
2022/07/15 02:14:33;;;;;;;6.32;3.25;;;;;;;22.15;49.80;99601.44;5068257;28;20107;-42
2022/07/15 02:16:59;;;;;;;5.93;2.88;;;;;;;21.95;50.48;99604.31;5065236;28;20062;-42
2022/07/15 02:19:25;;;;;;;5.05;3.10;;;;;;;21.88;51.12;99598.41;5068075;28;20413;-42
2022/07/15 02:21:50;;;;;;;5.40;2.92;;;;;;;21.94;50.64;99592.66;5068215;28;20090;-42
2022/07/15 02:24:19;;;;;;;5.18;3.00;;;;;;;21.96;50.38;99593.19;5067339;28;20025;-42
2022/07/15 02:26:45;;;;;;;4.38;2.90;;;;;;;22.01;50.31;99597.78;5067046;28;20039;-43
2022/07/15 02:29:10;;;;;;;3.92;2.80;;;;;;;21.90;50.49;99596.25;5068488;28;20154;-42
2022/07/15 02:31:36;;;;;;;6.05;2.80;;;;;;;21.79;50.68;99600.91;5068284;28;20024;-43
2022/07/15 02:34:02;;;;;;;3.67;2.63;;;;;;;21.76;50.79;99598.75;5068954;28;20025;-42
2022/07/15 02:36:29;;;;;;;4.88;2.70;;;;;;;21.71;51.17;99605.03;5069046;28;20024;-43
2022/07/15 02:38:54;;;;;;;4.55;2.60;;;;;;;21.67;50.56;99601.25;5068927;28;20028;-44
2022/07/15 02:41:20;;;;;;;3.97;2.60;;;;;;;21.66;50.42;99592.31;5069359;28;20035;-42
2022/07/15 02:43:45;;;;;;;5.65;2.70;;;;;;;21.72;50.54;99603.13;5069397;28;20404;-42
2022/07/15 02:46:11;;;;;;;6.22;2.80;;;;;;;21.73;50.60;99607.44;5069344;28;20133;-42
2022/07/15 02:48:38;;;;;;;5.68;3.10;;;;;;;21.60;50.63;99603.47;5068944;28;20060;-42
2022/07/15 02:51:03;;;;;;;5.15;2.95;;;;;;;21.67;51.20;99610.19;5068819;28;20049;-42
2022/07/15 02:53:29;;;;;;;6.95;2.90;;;;;;;21.75;50.61;99605.28;5068636;28;20577;-42
2022/07/15 02:55:56;;;;;;;6.75;2.83;;;;;;;21.63;50.82;99597.50;5068703;28;20371;-42
2022/07/15 02:58:22;;;;;;;6.50;2.90;;;;;;;21.65;51.60;99608.84;5070589;28;20107;-43
2022/07/15 03:00:48;;;;;;;9.52;3.00;;;;;;;21.60;51.30;99600.75;5089238;28;20411;-42
2022/07/15 03:03:13;;;;;;;7.35;3.20;;;;;;;21.56;51.17;99600.50;5089007;28;20020;-43
2022/07/15 03:05:39;;;;;;;6.68;3.22;;;;;;;21.44;52.13;99598.13;5089300;28;20055;-42
2022/07/15 03:08:05;;;;;;;4.15;3.10;;;;;;;21.50;51.57;99606.25;5088817;28;20012;-42
2022/07/15 03:10:30;;;;;;;6.07;3.10;;;;;;;22.25;49.47;99606.78;5088322;28;20579;-42
2022/07/15 03:12:56;;;;;;;5.75;3.17;;;;;;;21.70;50.72;99603.38;5088699;28;20024;-44
2022/07/15 03:15:21;;;;;;;8.65;3.38;;;;;;;21.60;51.23;99601.56;5088648;28;20038;-43
2022/07/15 03:17:47;;;;;;;7.32;3.00;;;;;;;21.45;51.40;99602.44;5087331;28;20012;-43
2022/07/15 03:20:12;;;;;;;8.20;3.38;;;;;;;21.38;51.96;99590.28;5088718;28;20623;-42
2022/07/15 03:22:37;;;;;;;14.40;4.53;;;;;;;21.21;52.87;99593.31;5089075;28;20028;-42
2022/07/15 03:25:04;;;;;;;12.52;4.18;;;;;;;21.22;53.01;99598.47;5088816;28;20028;-42
2022/07/15 03:27:30;;;;;;;9.18;3.53;;;;;;;21.29;52.73;99592.78;5089552;28;20032;-42
2022/07/15 03:29:55;;;;;;;9.48;3.70;;;;;;;21.45;51.95;99602.44;5092304;28;20024;-43
2022/07/15 03:32:21;;;;;;;15.88;4.20;;;;;;;21.58;51.45;99594.81;5092421;28;20461;-42
2022/07/15 03:34:48;;;;;;;6.90;3.10;;;;;;;22.10;49.82;99592.53;5092101;28;20020;-42
2022/07/15 03:37:14;;;;;;;6.28;3.30;;;;;;;21.64;50.45;99599.09;5092163;28;20030;-41
2022/07/15 03:39:39;;;;;;;5.60;2.95;;;;;;;21.46;51.15;99595.16;5092603;28;20103;-42
2022/07/15 03:42:05;;;;;;;7.55;3.15;;;;;;;21.56;51.01;99597.00;5092263;28;20130;-44
2022/07/15 03:44:30;;;;;;;5.60;3.25;;;;;;;21.81;50.48;99599.53;5092590;28;20453;-42
2022/07/15 03:46:56;;;;;;;6.70;3.42;;;;;;;21.88;49.50;99599.22;5092506;28;20018;-42
2022/07/15 03:49:21;;;;;;;4.97;2.65;;;;;;;22.90;46.86;99591.25;5091882;28;20568;-43
2022/07/15 03:51:47;;;;;;;6.43;2.60;;;;;;;23.51;44.84;99601.34;5091818;28;20024;-43
2022/07/15 03:54:13;;;;;;;4.72;3.22;;;;;;;24.10;43.37;99584.75;5091785;28;20487;-43
2022/07/15 03:56:38;;;;;;;6.28;2.90;;;;;;;24.68;43.08;99597.09;5091413;28;20483;-43
2022/07/15 03:59:04;;;;;;;6.50;3.10;;;;;;;25.08;42.03;99597.41;5091211;28;20026;-43
2022/07/15 04:01:29;;;;;;;5.38;2.92;;;;;;;25.51;41.22;99597.06;5091512;28;20103;-43
2022/07/15 04:03:56;;;;;;;6.22;2.90;;;;;;;25.75;40.43;99603.03;5091413;28;20012;-43
2022/07/15 04:06:21;;;;;;;4.13;2.63;;;;;;;26.16;39.83;99598.59;5091625;28;20024;-42
2022/07/15 04:08:49;;;;;;;5.32;2.70;;;;;;;26.44;39.10;99607.38;5091624;28;20085;-43
2022/07/15 04:11:14;;;;;;;3.63;2.70;;;;;;;26.81;38.14;99591.72;5083127;28;20153;-42
2022/07/15 04:13:40;;;;;;;4.97;2.90;;;;;;;27.02;37.34;99591.16;5070536;28;20496;-42
2022/07/15 04:16:08;;;;;;;5.97;2.70;;;;;;;27.34;37.18;99600.06;5070819;28;20113;-42
2022/07/15 04:18:34;;;;;;;5.95;2.70;;;;;;;27.52;36.23;99576.31;5070869;28;20020;-41
2022/07/15 04:21:00;;;;;;;3.15;2.60;;;;;;;27.69;35.52;99598.19;5071220;28;20039;-42
2022/07/15 04:23:25;;;;;;;7.10;2.88;;;;;;;27.97;35.11;99595.94;5073312;28;20046;-43
2022/07/15 04:25:52;;;;;;;8.75;3.17;;;;;;;28.39;34.48;99592.66;5089877;28;20113;-42
2022/07/15 04:28:21;;;;;;;7.07;2.80;;;;;;;28.56;34.20;99587.16;5089257;28;20031;-44
2022/07/15 04:30:47;;;;;;;11.75;3.30;;;;;;;28.89;33.55;99594.72;5090639;28;20485;-43
2022/07/15 04:33:13;;;;;;;7.43;2.88;;;;;;;29.22;33.40;99589.41;5090721;28;20019;-44
2022/07/15 04:35:38;;;;;;;8.43;2.90;;;;;;;29.59;32.29;99589.66;5090267;28;20028;-42
2022/07/15 04:38:04;;;;;;;5.93;2.50;;;;;;;29.93;31.93;99586.94;5090556;28;20069;-41
2022/07/15 04:40:32;;;;;;;6.32;2.88;;;;;;;30.22;31.57;99594.25;5090666;28;20380;-41
2022/07/15 04:42:58;;;;;;;10.32;4.30;;;;;;;30.44;31.06;99586.78;5090372;28;20658;-42
2022/07/15 04:45:24;;;;;;;6.10;2.95;;;;;;;30.37;31.21;99588.16;5089511;28;20012;-43
2022/07/15 04:47:50;;;;;;;6.80;2.85;;;;;;;30.98;30.04;99586.63;5089021;28;20028;-45
2022/07/15 04:52:59;;;;;;;5.30;2.90;;;;;;;31.31;29.35;99596.66;5088830;28;20692;-42
2022/07/15 04:55:26;;;;;;;4.20;2.60;;;;;;;31.53;29.17;99598.16;5088864;28;20024;-43
2022/07/15 04:57:51;;;;;;;12.05;3.08;;;;;;;31.67;28.67;99597.75;5089837;28;20020;-45
2022/07/15 05:00:17;;;;;;;8.27;3.42;;;;;;;31.94;27.98;99602.44;5088631;28;20016;-53
2022/07/15 05:02:42;;;;;;;7.15;3.15;;;;;;;32.17;27.63;99601.13;5090263;28;20494;-42
2022/07/15 05:05:08;;;;;;;6.32;2.80;;;;;;;31.80;27.86;99593.81;5090227;28;20032;-41
2022/07/15 05:07:33;;;;;;;4.88;2.60;;;;;;;32.20;27.33;99597.66;5090134;28;20191;-43
2022/07/15 05:09:59;;;;;;;4.57;2.63;;;;;;;32.57;27.01;99612.03;5090099;28;20340;-44
2022/07/15 05:12:24;;;;;;;6.15;2.35;;;;;;;33.08;26.24;99606.56;5089930;28;20024;-41
2022/07/15 05:14:50;;;;;;;4.80;2.47;;;;;;;33.54;25.73;99611.53;5090139;28;20024;-43
2022/07/15 05:17:15;;;;;;;3.08;2.38;;;;;;;33.69;25.41;99607.16;5089879;28;20024;-42
2022/07/15 05:19:40;;;;;;;22.80;3.90;;;;;;;33.55;25.48;99606.81;5090290;28;20024;-43
2022/07/15 05:22:06;;;;;;;20.10;3.25;;;;;;;33.75;25.15;99599.38;5090082;28;20024;-43
2022/07/15 05:24:31;;;;;;;14.10;3.20;;;;;;;33.84;25.65;99603.53;5089693;28;20027;-43
2022/07/15 05:26:59;;;;;;;20.27;3.20;;;;;;;34.13;25.02;99606.81;5089649;28;20027;-43
2022/07/15 05:29:25;;;;;;;10.55;2.83;;;;;;;34.48;24.99;99611.41;5089793;28;20473;-44
2022/07/15 05:31:51;;;;;;;16.40;3.28;;;;;;;33.92;24.94;99609.97;5090143;28;20523;-43
2022/07/15 05:34:16;;;;;;;8.00;3.25;;;;;;;34.35;24.84;99607.25;5089593;28;20107;-41
2022/07/15 05:36:42;;;;;;;13.60;2.80;;;;;;;34.79;24.47;99615.94;5089610;28;20032;-43
2022/07/15 05:39:07;;;;;;;9.50;2.55;;;;;;;34.91;24.30;99617.69;5089702;28;20069;-44
2022/07/15 05:41:33;;;;;;;13.57;3.10;;;;;;;35.23;23.49;99615.44;5089955;28;20114;-44
2022/07/15 05:43:59;;;;;;;5.93;2.50;;;;;;;35.46;23.20;99611.00;5089862;28;20445;-42
2022/07/15 05:46:25;;;;;;;11.25;2.90;;;;;;;35.78;22.73;99615.00;5089829;28;20430;-44
2022/07/15 05:48:50;;;;;;;15.43;3.30;;;;;;;35.99;22.75;99613.66;5089513;28;20030;-44
2022/07/15 05:51:16;;;;;;;12.93;3.38;;;;;;;35.96;23.19;99606.09;5089206;28;20055;-45
2022/07/15 05:53:42;;;;;;;19.38;3.40;;;;;;;36.07;22.84;99611.75;5089619;28;20027;-43
2022/07/15 05:56:08;;;;;;;7.72;2.42;;;;;;;35.42;23.52;99620.03;5089529;28;20372;-45
2022/07/15 05:58:34;;;;;;;9.23;3.38;;;;;;;36.05;22.92;99622.41;5089837;28;20016;-43
2022/07/15 06:00:59;;;;;;;8.75;3.10;;;;;;;36.04;23.04;99613.28;5089423;28;20024;-43
2022/07/15 06:03:25;;;;;;;8.02;2.80;;;;;;;36.30;22.91;99625.47;5089644;28;20144;-42
2022/07/15 06:05:50;;;;;;;5.50;2.60;;;;;;;36.77;22.72;99618.41;5089729;28;20024;-42
2022/07/15 06:08:16;;;;;;;5.80;2.60;;;;;;;35.25;24.00;99617.81;5089759;28;20081;-42
2022/07/15 06:10:42;;;;;;;7.43;2.60;;;;;;;34.17;25.01;99613.22;5089364;28;20027;-42
2022/07/15 06:13:07;;;;;;;5.65;2.55;;;;;;;33.86;26.20;99617.75;5089627;28;20027;-42
2022/07/15 06:15:33;;;;;;;5.68;2.63;;;;;;;33.67;26.02;99617.75;5089729;28;20419;-43
2022/07/15 06:17:59;;;;;;;7.70;2.47;;;;;;;33.76;25.76;99614.75;5089904;28;20020;-43
2022/07/15 06:20:25;;;;;;;3.65;2.40;;;;;;;33.98;25.59;99600.22;5089441;28;20020;-43
2022/07/15 06:22:51;;;;;;;4.90;2.28;;;;;;;34.91;24.69;99600.31;5089320;28;20016;-44
2022/07/15 06:25:16;;;;;;;5.88;2.40;;;;;;;34.45;25.36;99601.13;5089761;28;20032;-46
2022/07/15 06:27:42;;;;;;;10.15;2.88;;;;;;;34.18;25.83;99601.03;5089992;28;20024;-45
2022/07/15 06:30:08;;;;;;;5.28;2.72;;;;;;;34.37;25.62;99604.94;5089586;28;20482;-44
2022/07/15 06:32:33;;;;;;;4.85;2.50;;;;;;;34.19;26.09;99602.63;5089166;28;20036;-45
2022/07/15 06:34:59;;;;;;;9.70;6.28;;;;;;;34.26;25.62;99602.75;5089398;28;20111;-46
2022/07/15 06:37:25;;;;;;;11.23;9.10;;;;;;;34.40;25.58;99599.44;5089499;28;20112;-43
2022/07/15 06:39:50;;;;;;;5.03;2.50;;;;;;;34.24;25.05;99596.81;5089646;28;20084;-44
2022/07/15 06:42:17;;;;;;;6.70;2.40;;;;;;;34.57;24.80;99600.13;5089207;28;20020;-43
2022/07/15 06:44:43;;;;;;;5.68;2.40;;;;;;;34.83;24.57;99591.13;5089303;28;20524;-46
2022/07/15 06:47:08;;;;;;;4.95;3.00;;;;;;;34.77;24.92;99587.88;5089116;28;20069;-44
2022/07/15 06:49:34;;;;;;;6.20;2.33;;;;;;;34.79;24.21;99588.28;5089009;28;20397;-42
2022/07/15 06:52:00;;;;;;;5.85;2.53;;;;;;;34.85;24.80;99589.56;5089318;28;20488;-43
2022/07/15 06:54:26;;;;;;;4.55;2.40;;;;;;;34.71;24.54;99588.53;5087515;28;20484;-43
2022/07/15 06:56:51;;;;;;;4.43;2.47;;;;;;;34.88;24.17;99581.69;5089372;28;20028;-44
2022/07/15 06:59:17;;;;;;;5.45;2.40;;;;;;;34.79;23.99;99577.25;5089201;28;20024;-44
2022/07/15 07:01:42;;;;;;;6.05;2.33;;;;;;;35.04;24.14;99583.13;5089336;28;20050;-42
2022/07/15 07:04:08;;;;;;;7.63;3.40;;;;;;;35.28;24.67;99578.38;5092136;28;20135;-43
2022/07/15 07:06:33;;;;;;;5.63;2.55;;;;;;;35.29;23.93;99579.97;5093368;28;20024;-43
2022/07/15 07:08:59;;;;;;;5.57;2.22;;;;;;;35.17;24.29;99575.47;5093271;28;20494;-43
2022/07/15 07:11:25;;;;;;;4.50;2.15;;;;;;;35.07;24.20;99575.25;5091790;28;20028;-43
2022/07/15 07:13:50;;;;;;;10.73;2.58;;;;;;;35.47;24.04;99574.69;5092750;28;20376;-45
2022/07/15 07:16:17;;;;;;;3.92;2.33;;;;;;;35.42;23.70;99578.56;5092642;28;20043;-43
2022/07/15 07:18:44;;;;;;;7.20;2.45;;;;;;;35.53;23.64;99572.34;5092889;28;20415;-42
2022/07/15 07:21:10;;;;;;;6.93;2.47;;;;;;;35.38;23.92;99579.69;5093028;28;20092;-43
2022/07/15 07:23:36;;;;;;;5.80;2.10;;;;;;;35.18;24.11;99579.81;5092280;28;20036;-46
2022/07/15 07:26:03;;;;;;;3.67;2.25;;;;;;;35.43;23.85;99569.09;5092401;28;20024;-45
2022/07/15 07:28:28;;;;;;;5.07;2.30;;;;;;;35.59;24.03;99576.41;5092519;28;20543;-45
2022/07/15 07:30:54;;;;;;;7.60;2.17;;;;;;;35.51;24.32;99563.63;5092584;28;20111;-43
2022/07/15 07:33:21;;;;;;;3.47;2.20;;;;;;;35.31;23.77;99580.38;5092544;28;20406;-45
2022/07/15 07:35:46;;;;;;;5.15;2.38;;;;;;;35.81;23.38;99575.50;5092416;28;20130;-43
2022/07/15 07:38:12;;;;;;;7.40;2.30;;;;;;;35.92;23.62;99575.59;5092536;28;20649;-43
2022/07/15 07:40:37;;;;;;;5.53;2.20;;;;;;;36.03;24.13;99574.94;5092568;28;20028;-45
2022/07/15 07:43:03;;;;;;;4.25;2.35;;;;;;;36.20;23.64;99572.34;5092265;28;20024;-47
2022/07/15 07:45:28;;;;;;;7.47;3.15;;;;;;;36.16;23.91;99570.72;5092742;28;20039;-47
2022/07/15 07:47:55;;;;;;;5.10;2.33;;;;;;;36.04;23.92;99566.22;5092639;28;20063;-45
2022/07/15 07:50:21;;;;;;;5.53;2.75;;;;;;;36.24;23.31;99577.16;5092559;28;20073;-44
2022/07/15 07:52:46;;;;;;;5.10;2.60;;;;;;;36.22;23.21;99568.44;5092966;28;20480;-42
2022/07/15 07:55:12;;;;;;;4.20;2.50;;;;;;;36.48;22.59;99559.94;5092432;28;20074;-44
2022/07/15 07:57:47;;;;;;;8.90;2.50;;;;;;;36.28;23.05;99559.38;5092248;28;20027;-44
2022/07/15 08:00:13;;;;;;;5.63;2.75;;;;;;;36.32;23.58;99562.97;5092054;28;20043;-43
2022/07/15 08:02:39;;;;;;;3.35;2.20;;;;;;;36.45;23.62;99555.16;5092391;28;20020;-43
2022/07/15 08:05:05;;;;;;;7.10;2.20;;;;;;;36.76;22.63;99564.91;5092212;28;20031;-44
2022/07/15 08:07:30;;;;;;;5.25;2.20;;;;;;;36.45;23.12;99559.91;5091721;28;20100;-44
2022/07/15 08:09:55;;;;;;;6.18;2.10;;;;;;;36.51;22.97;99561.16;5091940;28;20444;-43
2022/07/15 08:12:21;;;;;;;8.48;2.47;;;;;;;36.05;23.09;99553.19;5091882;28;20027;-44
2022/07/15 08:14:46;;;;;;;5.43;2.22;;;;;;;36.35;23.17;99548.38;5091361;28;20047;-44
2022/07/15 08:17:12;;;;;;;5.38;2.30;;;;;;;36.18;22.29;99552.56;5091667;28;20024;-43
2022/07/15 08:19:37;;;;;;;5.68;2.30;;;;;;;35.98;22.21;99549.16;5091681;28;20028;-40
2022/07/15 08:22:03;;;;;;;7.00;2.38;;;;;;;35.55;23.17;99550.66;5091726;28;20403;-44
2022/07/15 08:24:28;;;;;;;5.75;2.50;;;;;;;35.75;22.77;99541.03;5091401;28;20036;-44
2022/07/15 08:26:54;;;;;;;6.47;2.10;;;;;;;35.82;22.25;99549.41;5091351;28;20472;-45
2022/07/15 08:29:19;;;;;;;7.45;2.25;;;;;;;35.71;22.37;99542.94;5091510;28;20504;-42
2022/07/15 08:31:46;;;;;;;4.72;2.80;;;;;;;35.85;23.90;99550.59;5091665;28;20024;-42
2022/07/15 08:34:12;;;;;;;6.22;2.40;;;;;;;36.13;23.07;99549.31;5091702;28;20039;-43
2022/07/15 08:36:37;;;;;;;8.77;2.60;;;;;;;36.51;22.60;99550.06;5091711;28;20055;-45
2022/07/15 08:39:02;;;;;;;7.68;2.60;;;;;;;36.59;22.10;99544.22;5091400;28;20056;-45
2022/07/15 08:41:28;;;;;;;6.25;2.20;;;;;;;36.70;22.43;99549.06;5090297;28;20027;-47
2022/07/15 08:43:53;;;;;;;6.30;2.30;;;;;;;36.67;21.94;99547.84;5091372;28;20063;-44
2022/07/15 08:46:20;;;;;;;5.95;2.60;;;;;;;36.35;22.48;99539.28;5091144;28;20031;-44
2022/07/15 08:48:51;;;;;;;16.20;12.10;;;;;;;36.67;22.23;99547.84;5091195;28;20043;-43
2022/07/15 08:51:21;;;;;;;7.78;4.57;;;;;;;36.63;21.54;99538.66;5091237;28;20493;-44
2022/07/15 08:53:47;;;;;;;4.20;2.45;;;;;;;36.10;21.69;99528.72;5091433;28;20193;-43
2022/07/15 08:56:12;;;;;;;4.25;2.25;;;;;;;36.30;21.99;99531.31;5091179;28;20055;-43
2022/07/15 08:58:39;;;;;;;3.88;2.00;;;;;;;36.60;21.11;99525.59;5091055;28;20028;-42
2022/07/15 09:01:04;;;;;;;4.75;1.90;;;;;;;36.59;20.42;99526.78;5090904;28;20027;-43
2022/07/15 09:03:30;;;;;;;3.80;1.98;;;;;;;36.70;20.48;99533.22;5090942;28;20549;-43
2022/07/15 09:05:55;;;;;;;9.05;2.08;;;;;;;36.75;21.45;99529.31;5091085;28;20032;-46
2022/07/15 09:08:21;;;;;;;4.53;2.20;;;;;;;36.47;20.84;99524.31;5090669;28;20106;-44
2022/07/15 09:10:51;;;;;;;3.05;1.90;;;;;;;35.85;21.80;99519.38;5090989;28;20028;-44
2022/07/15 09:13:33;;;;;;;3.33;1.98;;;;;;;35.91;21.72;99523.38;5090555;28;20126;-44
2022/07/15 09:16:08;;;;;;;7.50;5.03;;;;;;;36.55;21.81;99523.19;5090877;28;20024;-45
2022/07/15 09:18:43;;;;;;;4.72;3.00;;;;;;;36.70;21.29;99511.03;5090878;28;20031;-37
2022/07/15 09:21:26;;;;;;;9.30;5.13;;;;;;;36.84;21.75;99515.09;5090992;28;20070;-37
2022/07/15 09:23:53;;;;;;;8.13;3.00;;;;;;;36.54;20.86;99514.09;5090390;28;20027;-37
2022/07/15 09:26:33;;;;;;;5.97;2.35;;;;;;;35.98;20.91;99506.84;5089713;28;20360;-36
2022/07/15 09:29:00;;;;;;;7.85;3.10;;;;;;;35.89;20.99;99506.38;5090246;28;20035;-37
2022/07/15 09:34:24;;;;;;;4.38;2.10;;;;;;;35.61;21.37;99507.66;5090099;28;20081;-36
2022/07/15 09:36:54;;;;;;;9.63;1.80;;;;;;;35.98;20.75;99501.31;5090290;28;20035;-36
2022/07/15 09:39:21;;;;;;;2.00;1.70;;;;;;;36.09;20.95;99498.66;5090322;28;20024;-37
2022/07/15 09:41:47;;;;;;;4.78;1.88;;;;;;;36.16;20.55;99502.28;5090923;28;20028;-37
2022/07/15 09:44:15;;;;;;;3.97;1.92;;;;;;;36.26;20.41;99498.03;5090061;28;20020;-37
2022/07/15 09:46:49;;;;;;;3.92;1.70;;;;;;;36.31;19.72;99497.69;5090385;28;20038;-36
2022/07/15 09:49:17;;;;;;;13.38;8.43;;;;;;;36.51;20.65;99487.13;5090438;28;20032;-36
2022/07/15 09:51:47;;;;;;;3.80;1.98;;;;;;;36.55;19.59;99499.03;5090094;28;20123;-38
2022/07/15 09:54:13;;;;;;;3.25;1.95;;;;;;;36.45;18.91;99485.13;5089755;28;20050;-36
2022/07/15 09:56:39;;;;;;;3.83;2.08;;;;;;;36.46;18.99;99489.47;5090174;28;20032;-36
2022/07/15 09:59:06;;;;;;;5.10;1.80;;;;;;;36.55;19.54;99481.63;5089979;28;20043;-36
2022/07/15 10:01:32;;;;;;;9.48;1.90;;;;;;;36.13;19.68;99483.66;5090440;28;20028;-36
2022/07/15 10:03:57;;;;;;;5.80;1.90;;;;;;;36.00;20.13;99482.34;5089831;28;20458;-37
2022/07/15 10:06:27;;;;;;;4.35;2.20;;;;;;;35.93;20.06;99472.03;5089657;28;20027;-37
2022/07/15 10:08:53;;;;;;;4.32;2.47;;;;;;;36.62;19.93;99481.66;5089663;28;20502;-36
2022/07/15 10:11:20;;;;;;;5.25;2.10;;;;;;;37.54;19.08;99477.75;5090035;28;20035;-37
2022/07/15 10:13:54;;;;;;;4.07;1.73;;;;;;;37.25;19.27;99473.34;5089639;28;20024;-37
2022/07/15 10:16:20;;;;;;;3.35;1.70;;;;;;;37.09;18.50;99471.66;5089502;28;20036;-37
2022/07/15 10:19:07;;;;;;;2.33;2.05;;;;;;;36.44;19.79;99476.00;5089977;28;20058;-37
2022/07/15 10:21:43;;;;;;;5.43;1.80;;;;;;;37.28;18.46;99469.75;5090184;28;20036;-38
2022/07/15 10:24:38;;;;;;;3.83;1.90;;;;;;;37.50;18.88;99465.06;5090058;28;20028;-38
2022/07/15 10:27:34;;;;;;;4.90;1.95;;;;;;;37.26;19.57;99466.59;5073419;28;20089;-37
2022/07/15 10:30:04;;;;;;;3.42;1.85;;;;;;;37.94;17.89;99450.88;5090008;28;20031;-37
2022/07/15 10:32:49;;;;;;;3.17;1.80;;;;;;;37.82;18.83;99450.50;5090084;28;20032;-36
2022/07/15 10:35:39;;;;;;;4.88;2.15;;;;;;;37.44;18.95;99458.34;5089853;28;20490;-37
2022/07/15 10:38:33;;;;;;;3.00;1.83;;;;;;;37.39;18.67;99442.84;5089581;28;20032;-37
2022/07/15 10:41:00;;;;;;;2.58;1.90;;;;;;;36.85;19.72;99450.16;5089629;28;20132;-37
2022/07/15 10:43:49;;;;;;;4.43;1.90;;;;;;;36.75;19.69;99438.63;5089711;28;20038;-37
2022/07/15 10:46:21;;;;;;;2.33;1.63;;;;;;;36.83;19.24;99442.22;5089817;28;20481;-37
2022/07/15 10:48:51;;;;;;;4.75;1.75;;;;;;;37.21;19.32;99433.69;5089461;28;20032;-37
2022/07/15 10:51:49;;;;;;;9.18;6.78;;;;;;;37.74;18.73;99436.59;5089479;28;20052;-37
2022/07/15 10:54:17;;;;;;;2.53;1.52;;;;;;;37.32;18.99;99427.00;5044752;28;20043;-38
2022/07/15 10:56:48;;;;;;;2.42;1.52;;;;;;;37.49;18.11;99422.69;5089899;28;20032;-36
2022/07/15 10:59:24;;;;;;;3.13;1.67;;;;;;;36.57;19.66;99424.63;5089127;28;20404;-38
2022/07/15 11:02:11;;;;;;;3.33;1.80;;;;;;;35.57;19.79;99421.06;5089648;28;20104;-37
2022/07/15 11:04:37;;;;;;;4.85;2.17;;;;;;;36.11;19.88;99416.78;5089354;28;20036;-37
2022/07/15 11:07:03;;;;;;;5.93;2.13;;;;;;;37.22;18.09;99422.19;5089570;28;20024;-37
2022/07/15 11:09:54;;;;;;;18.58;13.30;;;;;;;37.87;18.54;99414.00;5089028;28;20492;-37
2022/07/15 11:12:44;;;;;;;4.38;3.00;;;;;;;38.39;18.48;99410.81;5089389;28;20031;-37
2022/07/15 11:15:14;;;;;;;2.60;1.40;;;;;;;38.27;17.03;99410.03;5089240;28;20058;-37
2022/07/15 11:17:42;;;;;;;3.08;1.30;;;;;;;38.80;16.77;99402.75;5089914;28;20024;-37
2022/07/15 11:20:23;;;;;;;13.43;10.02;;;;;;;39.36;17.07;99407.69;5089194;28;20092;-36
2022/07/15 11:22:51;;;;;;;4.38;2.08;;;;;;;39.08;16.47;99401.06;5089171;28;20035;-37
2022/07/15 11:25:27;;;;;;;5.38;1.83;;;;;;;38.92;16.91;99399.53;5089397;28;20032;-37
2022/07/15 11:28:00;;;;;;;5.03;1.80;;;;;;;37.71;17.71;99406.84;5089228;28;20024;-37
2022/07/15 11:30:26;;;;;;;2.05;1.40;;;;;;;37.66;18.25;99393.38;5088748;28;20097;-37
2022/07/15 11:32:56;;;;;;;3.13;1.65;;;;;;;38.03;17.65;99402.50;5088783;28;20020;-37
2022/07/15 11:35:23;;;;;;;2.58;1.35;;;;;;;38.46;17.21;99400.47;5089248;28;20036;-37
2022/07/15 11:37:56;;;;;;;3.28;2.85;;;;;;;38.21;17.38;99394.94;5088860;28;20395;-37
2022/07/15 11:45:56;;;;;;;4.00;2.85;;;;;;;39.58;16.23;99389.66;5089237;28;20041;-38
2022/07/15 11:48:22;;;;;;;5.35;4.30;;;;;;;39.54;16.47;99391.66;5088930;28;20024;-37